Time;durP1;ratioP1;P1;durP2;ratioP2;P2;SDS_P1;SDS_P2;PMS_P1;PMS_P2;Temp;Humidity;BMP_temperature;BMP_pressure;BME280_temperature;BME280_humidity;BME280_pressure;Samples;Min_cycle;Max_cycle;Signal;HPM_P1;HPM_P2
2021/05/17 00:02:18;;;;;;;8.23;2.80;;;;;;;17.73;100.00;97938.62;1721381;82;20910;-66
2021/05/17 00:04:48;;;;;;;10.25;2.80;;;;;;;17.74;100.00;97931.48;1722090;82;21273;-64
2021/05/17 00:07:18;;;;;;;6.78;2.60;;;;;;;17.74;100.00;97927.48;1735749;82;20986;-65
2021/05/17 00:09:48;;;;;;;4.75;2.62;;;;;;;17.75;100.00;97918.06;1687002;84;20867;-65
2021/05/17 00:12:20;;;;;;;4.45;2.67;;;;;;;17.81;100.00;97916.87;1686978;85;20970;-65
2021/05/17 00:14:48;;;;;;;4.00;2.77;;;;;;;17.85;100.00;97907.28;1687278;84;21455;-65
2021/05/17 00:17:17;;;;;;;4.55;2.60;;;;;;;17.90;100.00;97911.02;1687062;84;21054;-64
2021/05/17 00:19:51;;;;;;;8.70;3.05;;;;;;;17.92;100.00;97901.12;1686889;85;20922;-64
2021/05/17 00:22:21;;;;;;;5.87;2.95;;;;;;;17.97;100.00;97903.54;1687022;84;20887;-65
2021/05/17 00:24:50;;;;;;;5.83;3.50;;;;;;;17.98;100.00;97902.16;1686913;84;21448;-64
2021/05/17 00:27:19;;;;;;;5.80;2.85;;;;;;;17.99;100.00;97893.20;1700947;83;20938;-66
2021/05/17 00:29:49;;;;;;;5.78;2.90;;;;;;;17.96;100.00;97899.16;1716141;83;20938;-65
2021/05/17 00:32:17;;;;;;;5.08;2.45;;;;;;;17.95;100.00;97895.63;1727467;83;20985;-65
2021/05/17 00:34:49;;;;;;;4.33;2.98;;;;;;;17.95;100.00;97891.63;1700869;83;21487;-65
2021/05/17 00:37:18;;;;;;;8.35;3.80;;;;;;;17.94;100.00;97883.23;1716068;83;21456;-65
2021/05/17 00:39:46;;;;;;;7.00;3.05;;;;;;;17.93;100.00;97881.03;1727536;83;21562;-65
2021/05/17 00:42:16;;;;;;;7.60;3.33;;;;;;;17.91;100.00;97884.27;1727489;83;20965;-65
2021/05/17 00:44:48;;;;;;;7.40;3.22;;;;;;;17.88;100.00;97890.24;1717602;83;20891;-65
2021/05/17 00:47:15;;;;;;;4.97;2.40;;;;;;;17.88;100.00;97889.77;1697996;83;20955;-66
2021/05/17 00:49:47;;;;;;;9.30;3.10;;;;;;;17.82;100.00;97885.25;1721357;83;20969;-65
2021/05/17 00:52:21;;;;;;;4.83;2.98;;;;;;;17.76;100.00;97878.45;1707411;83;20957;-65
2021/05/17 00:54:45;;;;;;;3.75;2.77;;;;;;;17.74;100.00;97872.81;1754669;80;21057;-67
2021/05/17 00:57:15;;;;;;;5.25;3.10;;;;;;;17.75;100.00;97867.86;1776695;80;20886;-65
2021/05/17 00:59:45;;;;;;;3.67;2.75;;;;;;;17.72;100.00;97867.56;1775486;80;20906;-65
2021/05/17 01:02:13;;;;;;;5.50;2.55;;;;;;;17.72;100.00;97868.03;1776879;80;21504;-65
2021/05/17 01:05:02;;;;;;;9.00;2.72;;;;;;;17.71;100.00;97856.98;1767323;80;21468;-66
2021/05/17 01:07:30;;;;;;;4.62;2.58;;;;;;;17.73;100.00;97859.95;1710481;83;21781;-66
2021/05/17 01:09:58;;;;;;;5.37;3.30;;;;;;;17.76;100.00;97851.77;1773514;80;21448;-66
2021/05/17 01:12:28;;;;;;;5.92;3.00;;;;;;;17.77;100.00;97839.30;1742366;81;20902;-65
2021/05/17 01:14:58;;;;;;;7.67;3.52;;;;;;;17.76;100.00;97833.10;1772134;80;20937;-66
2021/05/17 01:17:27;;;;;;;4.45;2.90;;;;;;;17.79;100.00;97833.41;1746503;80;21401;-65
2021/05/17 01:20:05;;;;;;;4.58;2.77;;;;;;;17.79;100.00;97833.41;1775653;80;20914;-67
2021/05/17 01:23:01;;;;;;;4.75;3.00;;;;;;;17.81;100.00;97827.04;1777063;80;20914;-69
2021/05/17 01:25:27;;;;;;;7.28;2.75;;;;;;;17.83;100.00;97822.47;1747067;81;20903;-65
2021/05/17 01:27:56;;;;;;;;;;;;;;;17.85;100.00;97820.58;1773626;80;21508;-65
2021/05/17 01:30:26;;;;;;;3.98;2.70;;;;;;;17.87;100.00;97817.83;1775704;80;20172;-66
2021/05/17 01:32:55;;;;;;;4.08;3.22;;;;;;;17.88;100.00;97811.55;1759748;80;21110;-65
2021/05/17 01:35:26;;;;;;;5.12;2.70;;;;;;;17.86;100.00;97803.63;1753074;80;20941;-65
2021/05/17 01:37:54;;;;;;;5.97;3.10;;;;;;;17.87;100.00;97802.69;1755564;80;21465;-65
2021/05/17 01:40:22;;;;;;;6.70;2.92;;;;;;;17.92;100.00;97805.95;1710458;83;21033;-66
2021/05/17 01:42:53;;;;;;;4.72;3.08;;;;;;;17.92;100.00;97797.08;1709689;83;20954;-65
2021/05/17 01:45:20;;;;;;;4.70;3.02;;;;;;;17.92;100.00;97796.61;1772871;80;21634;-65
2021/05/17 01:47:48;;;;;;;7.08;3.27;;;;;;;17.94;100.00;97802.72;1765306;81;20911;-66
2021/05/17 01:50:16;;;;;;;6.35;3.10;;;;;;;17.95;100.00;97796.91;1619987;83;20926;-67
2021/05/17 01:52:45;;;;;;;6.45;3.00;;;;;;;17.96;100.00;97799.10;1780111;80;20935;-66
2021/05/17 01:55:17;;;;;;;6.45;2.65;;;;;;;17.96;100.00;97803.96;1780156;80;20927;-67
2021/05/17 01:57:49;;;;;;;3.52;2.87;;;;;;;17.99;100.00;97810.97;1749902;80;21053;-67
2021/05/17 02:00:18;;;;;;;3.90;2.58;;;;;;;18.01;100.00;97814.41;1758132;80;21452;-67
2021/05/17 02:02:48;;;;;;;4.75;3.05;;;;;;;17.98;100.00;97815.44;1762475;80;21393;-67
2021/05/17 02:05:20;;;;;;;6.95;2.92;;;;;;;17.92;100.00;97822.42;1772697;80;20933;-67
2021/05/17 02:07:48;;;;;;;12.65;3.70;;;;;;;17.87;100.00;97813.35;1770442;80;21449;-67
2021/05/17 02:10:17;;;;;;;6.78;2.90;;;;;;;17.84;100.00;97810.86;1749199;82;21656;-65
2021/05/17 02:12:45;;;;;;;6.47;2.87;;;;;;;17.85;100.00;97817.05;1749142;81;20911;-65
2021/05/17 02:15:17;;;;;;;4.90;2.92;;;;;;;17.83;100.00;97807.80;1749426;81;21430;-69
2021/05/17 02:17:46;;;;;;;3.37;3.08;;;;;;;17.84;100.00;97810.00;1766431;80;21409;-68
2021/05/17 02:20:17;;;;;;;10.25;3.42;;;;;;;17.82;100.00;97808.75;1763787;80;21380;-67
2021/05/17 02:22:49;;;;;;;11.65;2.92;;;;;;;17.84;100.00;97804.66;1758524;80;21058;-68
2021/05/17 02:25:20;;;;;;;9.80;2.98;;;;;;;17.85;100.00;97805.05;1779772;80;20891;-66
2021/05/17 02:27:49;;;;;;;8.18;3.65;;;;;;;17.85;100.00;97805.91;1780154;80;20879;-65
2021/05/17 02:30:18;;;;;;;5.42;3.40;;;;;;;17.78;100.00;97799.67;1772553;80;21460;-66
2021/05/17 02:32:49;;;;;;;3.50;2.50;;;;;;;17.78;100.00;97799.67;1772254;80;20906;-66
2021/05/17 02:35:22;;;;;;;11.60;3.50;;;;;;;17.74;100.00;97804.33;1772361;80;21051;-65
2021/05/17 02:37:50;;;;;;;8.25;3.08;;;;;;;17.72;100.00;97802.69;1775151;80;21372;-65
2021/05/17 02:40:18;;;;;;;3.83;3.37;;;;;;;17.68;100.00;97807.34;1761110;80;21440;-66
2021/05/17 02:42:48;;;;;;;3.98;2.87;;;;;;;17.53;100.00;97796.16;1772812;80;20878;-63
2021/05/17 02:45:22;;;;;;;5.67;3.37;;;;;;;17.53;100.00;97796.16;1726476;80;20905;-69
2021/05/17 02:47:51;;;;;;;5.08;3.50;;;;;;;17.43;100.00;97796.25;1700015;83;21055;-69
2021/05/17 02:50:19;;;;;;;10.15;3.25;;;;;;;17.36;100.00;97788.20;1767235;81;20879;-69
2021/05/17 02:52:47;;;;;;;4.55;3.10;;;;;;;17.36;100.00;97781.55;1708126;83;20896;-69
2021/05/17 02:55:15;;;;;;;7.37;3.27;;;;;;;17.36;100.00;97781.55;1774696;80;20890;-67
2021/05/17 02:57:49;;;;;;;4.05;2.87;;;;;;;17.32;100.00;97783.52;1774326;80;20874;-69
2021/05/17 03:00:20;;;;;;;6.28;2.90;;;;;;;17.32;100.00;97783.52;1769003;80;20991;-68
2021/05/17 03:03:15;;;;;;;6.20;2.90;;;;;;;17.29;100.00;97773.89;1761368;80;20914;-68
2021/05/17 03:06:05;;;;;;;5.72;2.67;;;;;;;17.31;100.00;97765.80;1754254;80;20890;-68
2021/05/17 03:08:48;;;;;;;4.15;2.77;;;;;;;17.35;100.00;97762.02;1753478;80;20950;-69
2021/05/17 03:11:15;;;;;;;9.47;3.13;;;;;;;17.34;100.00;97762.97;1770210;80;20882;-68
2021/05/17 03:13:44;;;;;;;2.98;2.67;;;;;;;17.31;100.00;97761.34;1764531;80;21030;-68
2021/05/17 03:16:13;;;;;;;5.53;2.62;;;;;;;17.34;100.00;97760.30;1762844;80;20942;-69
2021/05/17 03:18:41;;;;;;;4.60;2.67;;;;;;;17.34;100.00;97760.30;1717876;81;20906;-71
2021/05/17 03:21:09;;;;;;;7.85;3.25;;;;;;;17.38;100.00;97759.66;1768056;80;21480;-67
2021/05/17 03:23:36;;;;;;;4.22;3.20;;;;;;;17.38;100.00;97759.66;1765435;80;21476;-67
2021/05/17 03:26:04;;;;;;;3.52;3.10;;;;;;;17.40;100.00;97764.44;1766723;80;21038;-68
2021/05/17 03:28:32;;;;;;;6.47;2.92;;;;;;;17.40;100.00;97763.97;1764120;80;20958;-67
2021/05/17 03:31:00;;;;;;;9.70;3.22;;;;;;;17.42;100.00;97750.55;1768633;80;21037;-69
2021/05/17 03:33:27;;;;;;;8.65;3.62;;;;;;;17.43;100.00;97744.27;1768988;80;21004;-74
2021/05/17 03:35:54;;;;;;;5.03;2.92;;;;;;;17.46;100.00;97749.43;1768927;80;20926;-76
2021/05/17 03:38:22;;;;;;;5.70;3.17;;;;;;;17.46;100.00;97749.43;1766430;80;21685;-76
2021/05/17 03:40:49;;;;;;;4.45;2.90;;;;;;;17.45;100.00;97751.23;1767778;80;20918;-76
2021/05/17 03:43:16;;;;;;;4.97;3.27;;;;;;;17.45;100.00;97752.57;1766553;80;20922;-76
2021/05/17 03:45:43;;;;;;;4.72;2.90;;;;;;;17.48;100.00;97754.20;1700837;84;20945;-74
2021/05/17 03:48:11;;;;;;;4.37;2.77;;;;;;;17.42;100.00;97748.74;1696630;84;20933;-73
2021/05/17 03:50:38;;;;;;;4.10;2.92;;;;;;;17.42;100.00;97748.74;1683178;83;21871;-72
2021/05/17 03:53:06;;;;;;;6.83;3.00;;;;;;;17.42;100.00;97758.55;1749121;80;20954;-73
2021/05/17 03:55:33;;;;;;;5.50;2.50;;;;;;;17.40;100.00;97754.63;1748911;81;21072;-73
2021/05/17 03:58:00;;;;;;;3.30;2.77;;;;;;;17.42;100.00;97758.08;1763292;81;20926;-73
2021/05/17 04:00:28;;;;;;;5.00;2.83;;;;;;;17.46;100.00;97759.63;1742964;81;20938;-73
2021/05/17 04:02:57;;;;;;;4.30;2.52;;;;;;;17.52;100.00;97762.45;1742871;81;21134;-73
2021/05/17 04:13:29;;;;;;;4.12;3.10;;;;;;;17.62;100.00;97768.98;1742994;81;20945;-72
2021/05/17 04:15:56;;;;;;;4.55;2.67;;;;;;;17.65;100.00;97768.81;1742973;82;21758;-72
2021/05/17 04:18:24;;;;;;;6.58;2.35;;;;;;;17.65;100.00;97773.28;1743101;82;21404;-71
2021/05/17 04:20:52;;;;;;;7.28;2.37;;;;;;;17.69;100.00;97774.86;1742989;82;20858;-71
2021/05/17 04:23:22;;;;;;;4.40;1.98;;;;;;;17.68;100.00;97770.00;1715905;82;20966;-72
2021/05/17 04:25:51;;;;;;;2.70;1.90;;;;;;;17.70;100.00;97776.58;1743376;81;20938;-72
2021/05/17 04:28:19;;;;;;;2.90;2.10;;;;;;;17.73;100.00;97772.41;1744083;81;21067;-72
2021/05/17 04:30:46;;;;;;;4.40;2.10;;;;;;;17.72;100.00;97782.22;1756948;81;20886;-72
2021/05/17 04:33:14;;;;;;;3.55;2.10;;;;;;;17.72;100.00;97782.22;1773834;80;20883;-72
2021/05/17 04:35:41;;;;;;;5.15;1.87;;;;;;;17.72;100.00;97768.02;1773624;80;20953;-71
2021/05/17 04:38:08;;;;;;;7.42;2.15;;;;;;;17.70;100.00;97766.77;1773735;80;20918;-71
2021/05/17 04:40:36;;;;;;;3.22;1.92;;;;;;;17.70;100.00;97776.11;1773757;80;21056;-71
2021/05/17 04:43:04;;;;;;;4.58;1.80;;;;;;;17.72;100.00;97775.55;1773553;81;20882;-71
2021/05/17 04:45:31;;;;;;;4.45;1.92;;;;;;;17.74;100.00;97773.66;1773519;81;20906;-72
2021/05/17 04:47:58;;;;;;;3.55;2.10;;;;;;;17.75;100.00;97766.04;1774404;80;20910;-72
2021/05/17 04:50:25;;;;;;;4.90;2.50;;;;;;;17.75;100.00;97762.03;1781371;80;20909;-73
2021/05/17 04:52:53;;;;;;;3.70;2.30;;;;;;;17.77;100.00;97764.62;1781250;80;21103;-72
2021/05/17 04:55:20;;;;;;;3.90;2.10;;;;;;;17.80;100.00;97761.77;1781187;80;20857;-72
2021/05/17 04:57:50;;;;;;;4.67;2.08;;;;;;;17.82;100.00;97760.73;1781445;80;20914;-72
2021/05/17 05:00:19;;;;;;;3.35;2.42;;;;;;;17.90;100.00;97758.48;1750346;80;20972;-72
2021/05/17 05:02:46;;;;;;;4.12;2.17;;;;;;;17.92;100.00;97765.06;1781309;80;20933;-71
2021/05/17 05:05:14;;;;;;;3.87;2.10;;;;;;;17.91;100.00;97759.34;1781237;80;21814;-71
2021/05/17 05:07:42;;;;;;;4.03;1.98;;;;;;;17.91;100.00;97759.34;1781281;80;20957;-71
2021/05/17 05:10:10;;;;;;;4.75;2.00;;;;;;;17.94;100.00;97759.17;1781382;80;20902;-71
2021/05/17 05:12:38;;;;;;;3.55;1.82;;;;;;;17.93;100.00;97760.13;1781369;80;20898;-71
2021/05/17 05:15:06;;;;;;;4.22;2.70;;;;;;;17.94;100.00;97760.50;1781498;80;21399;-71
2021/05/17 05:17:34;;;;;;;4.83;2.87;;;;;;;17.97;100.00;97764.80;1781431;80;21057;-71
2021/05/17 05:20:01;;;;;;;5.08;2.92;;;;;;;18.00;100.00;97767.33;1781327;80;20913;-71
2021/05/17 05:22:28;;;;;;;3.95;2.58;;;;;;;18.03;100.00;97768.01;1781422;80;20926;-71
2021/05/17 05:24:57;;;;;;;3.30;2.10;;;;;;;18.07;100.00;97770.88;1781379;80;20946;-72
2021/05/17 05:30:03;;;;;;;3.52;2.17;;;;;;;18.10;100.00;97769.84;1778899;80;20937;-72
2021/05/17 05:32:36;;;;;;;3.37;2.02;;;;;;;18.12;100.00;97776.81;1764824;80;20937;-73
2021/05/17 05:35:01;;;;;;;4.08;2.20;;;;;;;18.16;100.00;97785.02;1750135;82;21418;-71
2021/05/17 05:37:30;;;;;;;2.37;1.60;;;;;;;18.19;100.00;97784.84;1750483;82;21436;-72
2021/05/17 05:39:57;;;;;;;4.00;1.87;;;;;;;18.19;100.00;97786.66;1750496;82;20933;-73
2021/05/17 05:42:26;;;;;;;3.42;2.05;;;;;;;18.22;100.00;97786.00;1750404;82;21038;-72
2021/05/17 05:44:55;;;;;;;6.08;1.70;;;;;;;18.24;100.00;97793.91;1750330;82;20913;-73
2021/05/17 05:47:22;;;;;;;4.37;1.80;;;;;;;18.27;100.00;97795.07;1750324;82;20913;-72
2021/05/17 05:49:49;;;;;;;2.20;1.60;;;;;;;18.31;100.00;97791.75;1746193;82;21381;-73
2021/05/17 05:52:17;;;;;;;4.22;1.42;;;;;;;18.33;100.00;97791.18;1744872;82;21428;-71
2021/05/17 05:54:45;;;;;;;2.67;1.70;;;;;;;18.37;100.00;97783.37;1723840;82;21052;-72
2021/05/17 05:57:14;;;;;;;5.10;1.90;;;;;;;18.40;100.00;97780.52;1744687;82;20945;-72
2021/05/17 05:59:42;;;;;;;2.37;1.47;;;;;;;18.40;100.00;97774.70;1744642;82;20926;-72
2021/05/17 06:02:09;;;;;;;2.80;1.65;;;;;;;18.40;100.00;97776.52;1760546;80;20954;-73
2021/05/17 06:04:37;;;;;;;3.58;1.67;;;;;;;18.41;100.00;97775.09;1746164;80;20897;-72
2021/05/17 06:07:04;;;;;;;2.22;1.62;;;;;;;18.43;100.00;97776.33;1744721;82;21036;-72
2021/05/17 06:09:31;;;;;;;1.98;1.30;;;;;;;18.44;100.00;97774.91;1744691;82;20909;-72
2021/05/17 06:12:00;;;;;;;2.52;1.35;;;;;;;18.47;100.00;97776.09;1744767;82;20882;-73
2021/05/17 06:14:29;;;;;;;1.45;1.35;;;;;;;18.49;100.00;97774.19;1744787;82;20925;-72
2021/05/17 06:16:57;;;;;;;4.25;1.50;;;;;;;18.52;100.00;97778.01;1744746;82;21440;-74
2021/05/17 06:19:25;;;;;;;2.52;1.60;;;;;;;18.54;100.00;97777.92;1744825;82;21619;-72
2021/05/17 06:21:52;;;;;;;2.02;1.40;;;;;;;18.51;100.00;97776.30;1744605;82;20890;-73
2021/05/17 06:24:23;;;;;;;1.82;1.45;;;;;;;18.51;100.00;97772.77;1744658;82;20987;-73
2021/05/17 06:26:53;;;;;;;2.90;1.65;;;;;;;18.52;100.00;97771.34;1745407;81;28007;-72
2021/05/17 06:29:23;;;;;;;4.60;1.50;;;;;;;18.56;100.00;97776.02;1745430;82;20965;-66
2021/05/17 06:31:51;;;;;;;3.85;1.60;;;;;;;18.60;100.00;97774.87;1744042;82;21057;-67
2021/05/17 06:34:21;;;;;;;3.42;1.80;;;;;;;18.63;100.00;97778.73;1743954;82;20957;-66
2021/05/17 06:36:50;;;;;;;2.77;1.55;;;;;;;18.71;100.00;97775.59;1744014;82;20979;-66
2021/05/17 06:39:19;;;;;;;2.22;1.50;;;;;;;18.76;100.00;97768.16;1744023;82;20997;-68
2021/05/17 06:41:49;;;;;;;3.00;1.40;;;;;;;18.81;100.00;97767.41;1744128;82;20898;-68
2021/05/17 06:44:17;;;;;;;3.12;2.10;;;;;;;18.88;100.00;97771.41;1744099;82;21456;-68
2021/05/17 06:46:45;;;;;;;2.62;1.60;;;;;;;18.93;100.00;97765.34;1743966;82;20905;-68
2021/05/17 06:49:13;;;;;;;6.95;1.80;;;;;;;18.97;100.00;97768.69;1743868;82;20937;-66
2021/05/17 06:51:40;;;;;;;1.87;1.50;;;;;;;19.01;100.00;97771.55;1743973;82;20933;-66
2021/05/17 06:54:09;;;;;;;1.82;1.32;;;;;;;19.05;100.00;97773.94;1744001;82;21388;-66
2021/05/17 06:56:43;;;;;;;2.98;1.72;;;;;;;19.14;100.00;97772.02;1743952;82;21068;-66
2021/05/17 06:59:14;;;;;;;3.35;1.60;;;;;;;19.22;100.00;97776.03;1743892;82;20890;-66
2021/05/17 07:01:41;;;;;;;1.12;1.02;;;;;;;19.27;100.00;97776.13;1745387;80;21413;-67
2021/05/17 07:04:10;;;;;;;1.62;1.30;;;;;;;19.33;100.00;97777.07;1758161;80;21491;-66
2021/05/17 07:06:39;;;;;;;2.45;1.70;;;;;;;19.37;100.00;97770.57;1774658;80;20898;-68
2021/05/17 07:12:03;;;;;;;1.98;1.02;;;;;;;19.52;100.00;97782.62;1761212;80;20943;-68
2021/05/17 07:14:26;;;;;;;2.35;0.95;;;;;;;19.57;100.00;97778.72;1753797;80;20926;-67
2021/05/17 07:16:55;;;;;;;1.17;1.02;;;;;;;19.62;100.00;97777.95;1767203;80;20973;-67
2021/05/17 07:19:27;;;;;;;1.57;1.05;;;;;;;19.66;100.00;97780.80;1757994;80;21001;-69
2021/05/17 07:24:46;;;;;;;2.42;1.10;;;;;;;19.79;100.00;97787.08;1744146;82;21500;-68
2021/05/17 07:27:16;;;;;;;1.90;1.20;;;;;;;19.86;100.00;97782.19;1744178;82;20898;-68
2021/05/17 07:29:50;;;;;;;2.92;1.10;;;;;;;19.90;100.00;97773.03;1744206;82;20945;-68
2021/05/17 07:32:18;;;;;;;2.70;1.27;;;;;;;19.95;100.00;97768.23;1744116;82;20866;-66
2021/05/17 07:34:45;;;;;;;2.05;1.10;;;;;;;20.02;100.00;97772.22;1744150;82;21063;-66
2021/05/17 07:37:14;;;;;;;3.98;1.00;;;;;;;20.07;100.00;97775.93;1744074;82;20922;-66
2021/05/17 07:39:42;;;;;;;2.55;1.10;;;;;;;20.11;100.00;97775.63;1744165;82;20866;-66
2021/05/17 07:42:10;;;;;;;3.37;1.20;;;;;;;20.19;100.00;97776.45;1744144;82;20921;-66
2021/05/17 07:44:38;;;;;;;2.40;1.20;;;;;;;20.28;100.00;97776.31;1744242;82;20882;-68
2021/05/17 07:47:06;;;;;;;2.47;1.10;;;;;;;20.33;100.00;97780.40;1744332;80;21385;-70
2021/05/17 07:49:38;;;;;;;1.20;1.10;;;;;;;20.40;100.00;97782.25;1761920;80;21644;-67
2021/05/17 07:52:05;;;;;;;1.92;1.10;;;;;;;20.46;100.00;97789.02;1744485;82;20926;-67
2021/05/17 07:54:35;;;;;;;1.50;1.27;;;;;;;20.50;100.00;97788.70;1744267;82;20961;-66
2021/05/17 07:57:04;;;;;;;2.92;1.17;;;;;;;20.53;100.00;97788.97;1744217;82;20902;-66
2021/05/17 07:59:32;;;;;;;3.42;1.00;;;;;;;20.53;100.00;97784.47;1744322;82;21049;-67
2021/05/17 08:02:00;;;;;;;2.00;1.20;;;;;;;20.54;100.00;97786.67;1744103;82;21451;-66
2021/05/17 08:04:27;;;;;;;2.30;1.15;;;;;;;20.55;100.00;97785.23;1744143;82;21547;-66
2021/05/17 08:06:55;;;;;;;4.47;1.30;;;;;;;20.59;100.00;97785.39;1744224;82;21508;-66
2021/05/17 08:09:23;;;;;;;6.53;1.40;;;;;;;20.63;100.00;97781.54;1744139;82;20914;-67
2021/05/17 08:11:51;;;;;;;2.12;1.25;;;;;;;20.64;100.00;97780.58;1744161;82;21836;-68
2021/05/17 08:14:19;;;;;;;1.65;1.10;;;;;;;20.64;100.00;97779.23;1744122;82;20952;-67
2021/05/17 08:16:47;;;;;;;1.70;1.00;;;;;;;20.68;100.00;97780.74;1744446;80;20905;-67
2021/05/17 08:19:16;;;;;;;5.58;1.00;;;;;;;20.71;100.00;97779.67;1744113;82;20930;-67
2021/05/17 08:21:43;;;;;;;4.10;0.88;;;;;;;20.74;100.00;97780.32;1744309;82;20946;-68
2021/05/17 08:24:11;;;;;;;1.90;0.80;;;;;;;20.76;100.00;97778.88;1744223;82;21053;-68
2021/05/17 08:26:45;;;;;;;3.15;0.90;;;;;;;20.80;100.00;97782.20;1744096;82;20863;-68
2021/05/17 08:29:10;;;;;;;1.45;0.85;;;;;;;20.83;100.00;97774.84;1743411;82;20933;-69
2021/05/17 08:31:37;;;;;;;1.35;0.95;;;;;;;20.87;100.00;97773.66;1744165;82;20942;-66
2021/05/17 08:34:04;;;;;;;2.80;1.00;;;;;;;20.90;100.00;97766.74;1744174;82;20989;-66
2021/05/17 08:36:32;;;;;;;10.45;1.25;;;;;;;20.95;100.00;97771.78;1744236;82;21464;-67
2021/05/17 08:38:59;;;;;;;2.83;1.00;;;;;;;20.99;100.00;97764.76;1744066;82;20917;-66
2021/05/17 08:41:29;;;;;;;1.42;0.90;;;;;;;21.04;100.00;97767.12;1744142;82;20886;-66
2021/05/17 08:43:56;;;;;;;1.98;1.05;;;;;;;21.09;100.00;97772.16;1744118;82;20929;-66
2021/05/17 08:46:23;;;;;;;1.85;1.10;;;;;;;21.14;100.00;97763.30;1744227;82;20938;-66
2021/05/17 08:48:51;;;;;;;1.20;1.10;;;;;;;21.20;100.00;97770.91;1753033;80;21032;-67
2021/05/17 08:51:31;;;;;;;3.02;1.25;;;;;;;21.24;100.00;97759.89;1780716;80;21484;-66
2021/05/17 08:54:01;;;;;;;1.30;0.95;;;;;;;21.29;100.00;97762.27;1783485;80;20882;-66
2021/05/17 08:56:30;;;;;;;3.72;1.55;;;;;;;21.32;100.00;97752.67;1783466;80;20949;-66
2021/05/17 08:59:01;;;;;;;3.20;1.42;;;;;;;21.41;100.00;97760.53;1778118;80;20938;-68
2021/05/17 09:01:28;;;;;;;2.90;1.02;;;;;;;21.47;100.00;97760.09;1752323;81;21049;-69
2021/05/17 09:04:03;;;;;;;6.58;1.20;;;;;;;21.54;100.00;97754.17;1752284;82;21219;-71
2021/05/17 09:06:42;;;;;;;1.95;0.98;;;;;;;21.62;100.00;97757.63;1752474;82;20909;-71
2021/05/17 09:09:36;;;;;;;8.25;1.00;;;;;;;21.66;100.00;97752.42;1751785;82;21559;-71
2021/05/17 09:12:11;;;;;;;2.05;1.00;;;;;;;21.75;100.00;97749.05;1752534;81;21020;-71
2021/05/17 09:14:39;;;;;;;1.92;0.80;;;;;;;21.86;100.00;97746.47;1752370;81;21004;-72
2021/05/17 09:17:09;;;;;;;2.98;1.00;;;;;;;21.94;100.00;97748.09;1753554;80;20984;-73
2021/05/17 09:19:41;;;;;;;2.85;0.88;;;;;;;22.02;100.00;97746.19;1770269;80;20945;-72
2021/05/17 09:22:19;;;;;;;7.97;1.50;;;;;;;22.10;100.00;97745.16;1752566;81;20969;-72
2021/05/17 09:24:54;;;;;;;2.85;1.27;;;;;;;22.19;100.00;97746.29;1752635;81;20933;-73
2021/05/17 09:27:31;;;;;;;2.70;0.95;;;;;;;22.27;100.00;97743.91;1752673;81;21765;-73
2021/05/17 09:30:01;;;;;;;3.60;0.88;;;;;;;22.38;100.00;97739.92;1752453;82;20949;-71
2021/05/17 09:32:31;;;;;;;2.45;0.80;;;;;;;22.46;100.00;97736.65;1752553;81;20870;-70
2021/05/17 09:35:07;;;;;;;4.85;0.62;;;;;;;22.54;100.00;97736.91;1752432;81;20941;-68
2021/05/17 09:38:05;;;;;;;6.70;0.98;;;;;;;22.66;100.00;97733.77;1752575;81;20901;-71
2021/05/17 09:40:28;;;;;;;12.28;0.90;;;;;;;22.77;100.00;97729.30;1749967;81;21059;-71
2021/05/17 09:43:10;;;;;;;1.85;0.80;;;;;;;22.85;100.00;97739.00;1752554;81;20889;-72
2021/05/17 09:45:40;;;;;;;2.55;1.07;;;;;;;22.91;100.00;97740.34;1752625;81;21008;-71
2021/05/17 09:48:12;;;;;;;5.03;1.42;;;;;;;22.94;97.36;97741.45;1752614;81;20965;-70
2021/05/17 09:51:10;;;;;;;6.73;1.40;;;;;;;22.92;96.37;97746.09;1748402;81;21005;-71
2021/05/17 09:53:44;;;;;;;1.50;0.80;;;;;;;22.88;96.07;97734.72;1744253;82;20910;-71
2021/05/17 09:56:20;;;;;;;3.05;0.80;;;;;;;22.90;95.94;97740.83;1744300;82;20921;-71
2021/05/17 09:58:51;;;;;;;1.60;0.88;;;;;;;22.92;95.66;97735.34;1744367;82;21373;-71
2021/05/17 10:01:31;;;;;;;3.12;0.80;;;;;;;22.95;95.66;97736.44;1744274;82;20946;-70
2021/05/17 10:04:06;;;;;;;1.72;0.70;;;;;;;22.88;94.91;97741.94;1744423;82;21389;-71
2021/05/17 10:06:33;;;;;;;1.35;0.82;;;;;;;22.86;93.06;97739.36;1744455;82;20991;-71
2021/05/17 10:09:01;;;;;;;1.37;0.60;;;;;;;22.87;92.40;97737.53;1744293;82;21475;-71
2021/05/17 10:11:28;;;;;;;1.72;0.95;;;;;;;22.83;90.48;97733.38;1744375;82;20894;-71
2021/05/17 10:13:55;;;;;;;0.90;0.60;;;;;;;22.79;89.55;97738.59;1744434;82;20949;-70
2021/05/17 10:16:24;;;;;;;3.75;1.07;;;;;;;22.80;90.01;97734.92;1744476;82;21384;-71
2021/05/17 10:18:51;;;;;;;3.20;1.12;;;;;;;22.78;91.63;97736.39;1744386;82;21041;-71
2021/05/17 10:21:23;;;;;;;2.60;0.80;;;;;;;22.79;90.57;97732.72;1744332;82;20881;-70
2021/05/17 10:23:50;;;;;;;1.57;0.80;;;;;;;22.79;90.80;97731.87;1744465;82;20862;-71
2021/05/17 10:26:25;;;;;;;1.22;0.65;;;;;;;22.77;90.96;97733.82;1744366;82;21457;-71
2021/05/17 10:29:00;;;;;;;2.45;0.70;;;;;;;22.77;89.97;97738.70;1744479;82;21412;-70
2021/05/17 10:31:29;;;;;;;1.57;0.82;;;;;;;22.77;91.68;97730.64;1744500;82;21143;-71
2021/05/17 10:34:03;;;;;;;2.58;0.90;;;;;;;22.79;92.58;97736.75;1744293;82;20945;-71
2021/05/17 10:36:54;;;;;;;0.90;0.65;;;;;;;22.77;91.29;97737.36;1744231;82;21428;-71
2021/05/17 10:39:37;;;;;;;1.30;0.70;;;;;;;22.74;90.71;97734.91;1741006;82;20938;-71
2021/05/17 10:46:35;;;;;;;5.47;0.95;;;;;;;22.70;89.36;97732.55;1846426;77;22707;-71
2021/05/17 10:47:03;;;;;;;2.05;0.88;;;;;;;22.55;90.44;97734.59;1819813;78;20929;-69
2021/05/17 10:49:38;;;;;;;3.15;0.78;;;;;;;22.50;92.38;97731.41;1823792;78;21096;-71
2021/05/17 10:52:11;;;;;;;3.33;1.05;;;;;;;22.44;94.22;97735.91;1823216;78;20895;-71
2021/05/17 10:54:44;;;;;;;2.08;0.90;;;;;;;22.33;94.62;97730.02;1823732;78;20954;-70
2021/05/17 10:57:27;;;;;;;3.67;1.00;;;;;;;22.18;96.90;97727.12;1823856;78;21504;-69
2021/05/17 11:02:44;;;;;;;2.33;1.10;;;;;;;22.00;100.00;97736.90;1824092;78;21096;-69
2021/05/17 11:05:20;;;;;;;1.60;0.95;;;;;;;21.89;100.00;97731.48;1823737;78;20942;-70
2021/05/17 11:07:55;;;;;;;0.90;0.70;;;;;;;21.84;100.00;97733.64;1823871;78;20986;-69
2021/05/17 11:10:38;;;;;;;7.67;0.90;;;;;;;21.74;100.00;97731.23;1823960;78;20883;-70
2021/05/17 11:13:19;;;;;;;21.45;1.85;;;;;;;21.65;100.00;97729.23;1824091;78;21457;-70
2021/05/17 11:16:06;;;;;;;5.60;0.98;;;;;;;21.50;100.00;97731.70;1823863;78;21491;-69
2021/05/17 11:18:39;;;;;;;1.10;0.80;;;;;;;21.38;100.00;97729.91;1823755;78;20895;-70
2021/05/17 11:21:27;;;;;;;5.40;0.90;;;;;;;21.29;100.00;97730.09;1823721;78;20875;-70
2021/05/17 11:23:58;;;;;;;6.15;1.00;;;;;;;21.20;100.00;97734.70;1819512;78;21023;-70
2021/05/17 11:26:25;;;;;;;3.30;0.70;;;;;;;21.10;100.00;97731.83;1823794;78;20847;-70
2021/05/17 11:28:55;;;;;;;2.52;0.82;;;;;;;21.00;100.00;97736.98;1823823;78;21377;-68
2021/05/17 11:31:38;;;;;;;3.87;0.88;;;;;;;20.95;100.00;97739.62;1823952;78;20895;-70
2021/05/17 11:34:11;;;;;;;3.10;1.00;;;;;;;20.89;100.00;97743.58;1823645;78;20882;-70
2021/05/17 11:37:12;;;;;;;0.88;0.80;;;;;;;20.83;100.00;97744.50;1823645;78;20950;-69
2021/05/17 11:39:39;;;;;;;1.57;0.88;;;;;;;20.79;100.00;97745.16;1823467;78;20993;-70
2021/05/17 11:42:10;;;;;;;3.02;0.90;;;;;;;20.73;100.00;97751.80;1823809;78;21031;-70
2021/05/17 11:45:12;;;;;;;1.60;1.00;;;;;;;20.70;100.00;97751.16;1793049;78;20983;-70
2021/05/17 11:47:31;;;;;;;2.00;0.90;;;;;;;20.62;100.00;97747.67;1789447;78;20900;-70
2021/05/17 11:49:59;;;;;;;0.95;0.68;;;;;;;20.54;100.00;97754.52;1791302;78;20904;-71
2021/05/17 11:52:28;;;;;;;4.53;0.90;;;;;;;20.47;100.00;97746.53;1791529;78;20892;-68
2021/05/17 11:55:07;;;;;;;0.70;0.70;;;;;;;20.42;100.00;97748.19;1776328;80;21600;-68
2021/05/17 11:57:41;;;;;;;1.72;0.88;;;;;;;20.34;100.00;97746.00;1758066;80;21612;-69
2021/05/17 12:00:15;;;;;;;4.12;0.80;;;;;;;20.30;100.00;97749.81;1771494;78;20983;-71
2021/05/17 12:02:55;;;;;;;3.25;0.80;;;;;;;20.27;100.00;97743.80;1762039;80;20893;-69
2021/05/17 12:05:23;;;;;;;2.80;0.80;;;;;;;20.23;100.00;97741.81;1788670;78;21018;-69